sensor_id;sensor_type;location;lat;lon;timestamp;temperature;humidity
34768;DHT22;21755;43.608;1.236;2023-12-20T00:01:38;7.30;99.90
34768;DHT22;21755;43.608;1.236;2023-12-20T00:04:05;7.30;99.90
34768;DHT22;21755;43.608;1.236;2023-12-20T00:06:31;7.30;99.90
34768;DHT22;21755;43.608;1.236;2023-12-20T00:08:57;7.30;99.90
34768;DHT22;21755;43.608;1.236;2023-12-20T00:11:24;7.30;99.90
34768;DHT22;21755;43.608;1.236;2023-12-20T00:13:50;7.30;99.90
34768;DHT22;21755;43.608;1.236;2023-12-20T00:16:16;7.30;99.90
34768;DHT22;21755;43.608;1.236;2023-12-20T00:18:42;7.30;99.90
34768;DHT22;21755;43.608;1.236;2023-12-20T00:21:08;7.30;99.90
34768;DHT22;21755;43.608;1.236;2023-12-20T00:23:34;7.30;99.90
34768;DHT22;21755;43.608;1.236;2023-12-20T00:26:00;7.40;99.90
34768;DHT22;21755;43.608;1.236;2023-12-20T00:28:26;7.30;99.90
34768;DHT22;21755;43.608;1.236;2023-12-20T00:30:52;7.30;99.90
34768;DHT22;21755;43.608;1.236;2023-12-20T00:33:17;7.40;99.90
34768;DHT22;21755;43.608;1.236;2023-12-20T00:35:44;7.40;99.90
34768;DHT22;21755;43.608;1.236;2023-12-20T00:38:10;7.40;99.90
34768;DHT22;21755;43.608;1.236;2023-12-20T00:40:37;7.40;99.90
34768;DHT22;21755;43.608;1.236;2023-12-20T00:43:03;7.40;99.90
34768;DHT22;21755;43.608;1.236;2023-12-20T00:45:29;7.40;99.90
34768;DHT22;21755;43.608;1.236;2023-12-20T00:47:55;7.40;99.90
34768;DHT22;21755;43.608;1.236;2023-12-20T00:50:21;7.40;99.90
34768;DHT22;21755;43.608;1.236;2023-12-20T00:52:47;7.40;99.90
34768;DHT22;21755;43.608;1.236;2023-12-20T00:55:13;7.40;99.90
34768;DHT22;21755;43.608;1.236;2023-12-20T00:57:39;7.40;99.90
34768;DHT22;21755;43.608;1.236;2023-12-20T01:00:06;7.40;99.90
34768;DHT22;21755;43.608;1.236;2023-12-20T01:02:32;7.40;99.90
34768;DHT22;21755;43.608;1.236;2023-12-20T01:04:57;7.40;99.90
34768;DHT22;21755;43.608;1.236;2023-12-20T01:07:23;7.50;99.90
34768;DHT22;21755;43.608;1.236;2023-12-20T01:09:49;7.50;99.90
34768;DHT22;21755;43.608;1.236;2023-12-20T01:12:15;7.40;99.90
34768;DHT22;21755;43.608;1.236;2023-12-20T01:14:41;7.50;99.90
34768;DHT22;21755;43.608;1.236;2023-12-20T01:17:07;7.50;99.90
34768;DHT22;21755;43.608;1.236;2023-12-20T01:19:33;7.50;99.90
34768;DHT22;21755;43.608;1.236;2023-12-20T01:21:59;7.50;99.90
34768;DHT22;21755;43.608;1.236;2023-12-20T01:24:25;7.50;99.90
34768;DHT22;21755;43.608;1.236;2023-12-20T01:26:51;7.50;99.90
34768;DHT22;21755;43.608;1.236;2023-12-20T01:29:17;7.50;99.90
34768;DHT22;21755;43.608;1.236;2023-12-20T01:31:43;7.50;99.90
34768;DHT22;21755;43.608;1.236;2023-12-20T01:34:09;7.50;99.90
34768;DHT22;21755;43.608;1.236;2023-12-20T01:36:35;7.50;99.90
34768;DHT22;21755;43.608;1.236;2023-12-20T01:39:01;7.50;99.90
34768;DHT22;21755;43.608;1.236;2023-12-20T01:41:26;7.60;99.90
34768;DHT22;21755;43.608;1.236;2023-12-20T01:43:52;7.60;99.90
34768;DHT22;21755;43.608;1.236;2023-12-20T01:46:20;7.50;99.90
34768;DHT22;21755;43.608;1.236;2023-12-20T01:48:47;7.60;99.90
34768;DHT22;21755;43.608;1.236;2023-12-20T01:51:13;7.60;99.90
34768;DHT22;21755;43.608;1.236;2023-12-20T01:53:40;7.60;99.90
34768;DHT22;21755;43.608;1.236;2023-12-20T01:56:07;7.60;99.90
34768;DHT22;21755;43.608;1.236;2023-12-20T01:58:34;7.60;99.90
34768;DHT22;21755;43.608;1.236;2023-12-20T02:01:01;7.60;99.90
34768;DHT22;21755;43.608;1.236;2023-12-20T02:03:27;7.60;99.90
34768;DHT22;21755;43.608;1.236;2023-12-20T02:05:53;7.60;99.90
34768;DHT22;21755;43.608;1.236;2023-12-20T02:08:19;7.60;99.90
34768;DHT22;21755;43.608;1.236;2023-12-20T02:10:45;7.70;99.90
34768;DHT22;21755;43.608;1.236;2023-12-20T02:13:11;7.60;99.90
34768;DHT22;21755;43.608;1.236;2023-12-20T02:15:36;7.70;99.90
34768;DHT22;21755;43.608;1.236;2023-12-20T02:18:03;7.70;99.90
34768;DHT22;21755;43.608;1.236;2023-12-20T02:20:29;7.70;99.90
34768;DHT22;21755;43.608;1.236;2023-12-20T02:22:55;7.70;99.90
34768;DHT22;21755;43.608;1.236;2023-12-20T02:25:21;7.70;99.90
34768;DHT22;21755;43.608;1.236;2023-12-20T02:27:48;7.70;99.90
34768;DHT22;21755;43.608;1.236;2023-12-20T02:30:15;7.70;99.90
34768;DHT22;21755;43.608;1.236;2023-12-20T02:32:41;7.70;99.90
34768;DHT22;21755;43.608;1.236;2023-12-20T02:35:07;7.70;99.90
34768;DHT22;21755;43.608;1.236;2023-12-20T02:37:33;7.70;99.90
34768;DHT22;21755;43.608;1.236;2023-12-20T02:39:59;7.70;99.90
34768;DHT22;21755;43.608;1.236;2023-12-20T02:42:25;7.70;99.90
34768;DHT22;21755;43.608;1.236;2023-12-20T02:44:51;7.70;99.90
34768;DHT22;21755;43.608;1.236;2023-12-20T02:47:17;7.70;99.90
34768;DHT22;21755;43.608;1.236;2023-12-20T02:49:43;7.70;99.90
34768;DHT22;21755;43.608;1.236;2023-12-20T02:52:09;7.70;99.90
34768;DHT22;21755;43.608;1.236;2023-12-20T02:54:34;7.70;99.90
34768;DHT22;21755;43.608;1.236;2023-12-20T02:57:00;7.70;99.90
34768;DHT22;21755;43.608;1.236;2023-12-20T02:59:26;7.80;99.90
34768;DHT22;21755;43.608;1.236;2023-12-20T03:01:52;7.80;99.90
34768;DHT22;21755;43.608;1.236;2023-12-20T03:04:18;7.80;99.90
34768;DHT22;21755;43.608;1.236;2023-12-20T03:06:44;7.80;99.90
34768;DHT22;21755;43.608;1.236;2023-12-20T03:09:10;7.80;99.90
34768;DHT22;21755;43.608;1.236;2023-12-20T03:11:36;7.80;99.90
34768;DHT22;21755;43.608;1.236;2023-12-20T03:14:01;7.80;99.90
34768;DHT22;21755;43.608;1.236;2023-12-20T03:16:27;7.80;99.90
34768;DHT22;21755;43.608;1.236;2023-12-20T03:18:53;7.80;99.90
34768;DHT22;21755;43.608;1.236;2023-12-20T03:21:19;7.80;99.90
34768;DHT22;21755;43.608;1.236;2023-12-20T03:23:45;7.80;99.90
34768;DHT22;21755;43.608;1.236;2023-12-20T03:26:11;7.80;99.90
34768;DHT22;21755;43.608;1.236;2023-12-20T03:28:37;7.80;99.90
34768;DHT22;21755;43.608;1.236;2023-12-20T03:31:03;7.80;99.90
34768;DHT22;21755;43.608;1.236;2023-12-20T03:33:29;7.90;99.90
34768;DHT22;21755;43.608;1.236;2023-12-20T03:35:55;7.80;99.90
34768;DHT22;21755;43.608;1.236;2023-12-20T03:38:21;7.80;99.90
34768;DHT22;21755;43.608;1.236;2023-12-20T03:40:49;7.90;99.90
34768;DHT22;21755;43.608;1.236;2023-12-20T03:43:15;7.80;99.90
34768;DHT22;21755;43.608;1.236;2023-12-20T03:45:42;7.90;99.90
34768;DHT22;21755;43.608;1.236;2023-12-20T03:48:08;7.90;99.90
34768;DHT22;21755;43.608;1.236;2023-12-20T03:50:35;7.90;99.90
34768;DHT22;21755;43.608;1.236;2023-12-20T03:53:01;7.90;99.90
34768;DHT22;21755;43.608;1.236;2023-12-20T03:55:27;7.90;99.90
34768;DHT22;21755;43.608;1.236;2023-12-20T03:57:53;7.90;99.90
34768;DHT22;21755;43.608;1.236;2023-12-20T04:00:19;7.90;99.90
34768;DHT22;21755;43.608;1.236;2023-12-20T04:02:45;7.90;99.90
34768;DHT22;21755;43.608;1.236;2023-12-20T04:05:11;7.90;99.90
34768;DHT22;21755;43.608;1.236;2023-12-20T04:07:37;7.90;99.90
34768;DHT22;21755;43.608;1.236;2023-12-20T04:10:03;7.90;99.90
34768;DHT22;21755;43.608;1.236;2023-12-20T04:12:29;7.90;99.90
34768;DHT22;21755;43.608;1.236;2023-12-20T04:14:56;8.00;99.90
34768;DHT22;21755;43.608;1.236;2023-12-20T04:17:22;8.00;99.90
34768;DHT22;21755;43.608;1.236;2023-12-20T04:19:52;8.00;99.90
34768;DHT22;21755;43.608;1.236;2023-12-20T04:22:18;8.00;99.90
34768;DHT22;21755;43.608;1.236;2023-12-20T04:24:44;8.00;99.90
34768;DHT22;21755;43.608;1.236;2023-12-20T04:27:11;8.00;99.90
34768;DHT22;21755;43.608;1.236;2023-12-20T04:29:37;8.00;99.90
34768;DHT22;21755;43.608;1.236;2023-12-20T04:32:03;8.00;99.90
34768;DHT22;21755;43.608;1.236;2023-12-20T04:34:29;8.00;99.90
34768;DHT22;21755;43.608;1.236;2023-12-20T04:36:55;8.00;99.90
34768;DHT22;21755;43.608;1.236;2023-12-20T04:39:21;8.00;99.90
34768;DHT22;21755;43.608;1.236;2023-12-20T04:41:47;8.00;99.90
34768;DHT22;21755;43.608;1.236;2023-12-20T04:44:13;8.00;99.90
34768;DHT22;21755;43.608;1.236;2023-12-20T04:46:39;8.00;99.90
34768;DHT22;21755;43.608;1.236;2023-12-20T04:49:05;8.00;99.90
34768;DHT22;21755;43.608;1.236;2023-12-20T04:51:34;8.00;99.90
34768;DHT22;21755;43.608;1.236;2023-12-20T04:54:01;8.00;99.90
34768;DHT22;21755;43.608;1.236;2023-12-20T04:56:27;8.00;99.90
34768;DHT22;21755;43.608;1.236;2023-12-20T04:58:53;8.00;99.90
34768;DHT22;21755;43.608;1.236;2023-12-20T05:01:19;8.00;99.90
34768;DHT22;21755;43.608;1.236;2023-12-20T05:03:46;8.00;99.90
34768;DHT22;21755;43.608;1.236;2023-12-20T05:06:12;8.00;99.90
34768;DHT22;21755;43.608;1.236;2023-12-20T05:08:38;8.00;99.90
34768;DHT22;21755;43.608;1.236;2023-12-20T05:11:04;8.10;99.90
34768;DHT22;21755;43.608;1.236;2023-12-20T05:13:30;8.10;99.90
34768;DHT22;21755;43.608;1.236;2023-12-20T05:15:56;8.10;99.90
34768;DHT22;21755;43.608;1.236;2023-12-20T05:18:22;8.10;99.90
34768;DHT22;21755;43.608;1.236;2023-12-20T05:20:49;8.10;99.90
34768;DHT22;21755;43.608;1.236;2023-12-20T05:23:16;8.10;99.90
34768;DHT22;21755;43.608;1.236;2023-12-20T05:25:42;8.10;99.90
34768;DHT22;21755;43.608;1.236;2023-12-20T05:28:08;8.10;99.90
34768;DHT22;21755;43.608;1.236;2023-12-20T05:30:34;8.10;99.90
34768;DHT22;21755;43.608;1.236;2023-12-20T05:33:00;8.10;99.90
34768;DHT22;21755;43.608;1.236;2023-12-20T05:35:26;8.20;99.90
34768;DHT22;21755;43.608;1.236;2023-12-20T05:37:52;8.20;99.90
34768;DHT22;21755;43.608;1.236;2023-12-20T05:40:18;8.20;99.90
34768;DHT22;21755;43.608;1.236;2023-12-20T05:42:44;8.20;99.90
34768;DHT22;21755;43.608;1.236;2023-12-20T05:48:32;8.20;99.90
34768;DHT22;21755;43.608;1.236;2023-12-20T05:50:58;8.20;99.90
34768;DHT22;21755;43.608;1.236;2023-12-20T05:53:24;8.20;99.90
34768;DHT22;21755;43.608;1.236;2023-12-20T05:55:50;8.20;99.90
34768;DHT22;21755;43.608;1.236;2023-12-20T05:58:16;8.20;99.90
34768;DHT22;21755;43.608;1.236;2023-12-20T06:00:41;8.20;99.90
34768;DHT22;21755;43.608;1.236;2023-12-20T06:03:07;8.20;99.90
34768;DHT22;21755;43.608;1.236;2023-12-20T06:05:33;8.20;99.90
34768;DHT22;21755;43.608;1.236;2023-12-20T06:07:59;8.20;99.90
34768;DHT22;21755;43.608;1.236;2023-12-20T06:10:28;8.30;99.90
34768;DHT22;21755;43.608;1.236;2023-12-20T06:12:55;8.30;99.90
34768;DHT22;21755;43.608;1.236;2023-12-20T06:15:21;8.30;99.90
34768;DHT22;21755;43.608;1.236;2023-12-20T06:17:47;8.30;99.90
34768;DHT22;21755;43.608;1.236;2023-12-20T06:20:13;8.30;99.90
34768;DHT22;21755;43.608;1.236;2023-12-20T06:22:39;8.30;99.90
34768;DHT22;21755;43.608;1.236;2023-12-20T06:25:05;8.30;99.90
34768;DHT22;21755;43.608;1.236;2023-12-20T06:27:32;8.30;99.90
34768;DHT22;21755;43.608;1.236;2023-12-20T06:29:58;8.30;99.90
34768;DHT22;21755;43.608;1.236;2023-12-20T06:32:24;8.30;99.90
34768;DHT22;21755;43.608;1.236;2023-12-20T06:34:50;8.40;99.90
34768;DHT22;21755;43.608;1.236;2023-12-20T06:37:16;8.40;99.90
34768;DHT22;21755;43.608;1.236;2023-12-20T06:39:42;8.40;99.90
34768;DHT22;21755;43.608;1.236;2023-12-20T06:42:08;8.40;99.90
34768;DHT22;21755;43.608;1.236;2023-12-20T06:44:34;8.40;99.90
34768;DHT22;21755;43.608;1.236;2023-12-20T06:47:00;8.40;99.90
34768;DHT22;21755;43.608;1.236;2023-12-20T06:49:26;8.40;99.90
34768;DHT22;21755;43.608;1.236;2023-12-20T06:51:51;8.40;99.90
34768;DHT22;21755;43.608;1.236;2023-12-20T06:54:18;8.40;99.90
34768;DHT22;21755;43.608;1.236;2023-12-20T06:56:44;8.40;99.90
34768;DHT22;21755;43.608;1.236;2023-12-20T06:59:10;8.50;99.90
34768;DHT22;21755;43.608;1.236;2023-12-20T07:01:36;8.50;99.90
34768;DHT22;21755;43.608;1.236;2023-12-20T07:04:02;8.50;99.90
34768;DHT22;21755;43.608;1.236;2023-12-20T07:06:28;8.50;99.90
34768;DHT22;21755;43.608;1.236;2023-12-20T07:08:53;8.50;99.90
34768;DHT22;21755;43.608;1.236;2023-12-20T07:11:19;8.50;99.90
34768;DHT22;21755;43.608;1.236;2023-12-20T07:13:45;8.50;99.90
34768;DHT22;21755;43.608;1.236;2023-12-20T07:16:11;8.60;99.90
34768;DHT22;21755;43.608;1.236;2023-12-20T07:18:37;8.60;99.90
34768;DHT22;21755;43.608;1.236;2023-12-20T07:21:03;8.60;99.90
34768;DHT22;21755;43.608;1.236;2023-12-20T07:23:29;8.60;99.90
34768;DHT22;21755;43.608;1.236;2023-12-20T07:25:55;8.60;99.90
34768;DHT22;21755;43.608;1.236;2023-12-20T07:28:21;8.60;99.90
34768;DHT22;21755;43.608;1.236;2023-12-20T07:30:50;8.60;99.90
34768;DHT22;21755;43.608;1.236;2023-12-20T07:33:19;8.60;99.90
34768;DHT22;21755;43.608;1.236;2023-12-20T07:35:45;8.60;99.90
34768;DHT22;21755;43.608;1.236;2023-12-20T07:38:11;8.60;99.90
34768;DHT22;21755;43.608;1.236;2023-12-20T07:40:37;8.70;99.90
34768;DHT22;21755;43.608;1.236;2023-12-20T07:43:04;8.60;99.90
34768;DHT22;21755;43.608;1.236;2023-12-20T07:45:30;8.60;99.90
34768;DHT22;21755;43.608;1.236;2023-12-20T07:47:56;8.70;99.90
34768;DHT22;21755;43.608;1.236;2023-12-20T07:50:22;8.70;99.90
34768;DHT22;21755;43.608;1.236;2023-12-20T07:52:48;8.70;99.90
34768;DHT22;21755;43.608;1.236;2023-12-20T07:55:14;8.70;99.90
34768;DHT22;21755;43.608;1.236;2023-12-20T07:57:40;8.70;99.90
34768;DHT22;21755;43.608;1.236;2023-12-20T08:00:06;8.70;99.90
34768;DHT22;21755;43.608;1.236;2023-12-20T08:02:32;8.70;99.90
34768;DHT22;21755;43.608;1.236;2023-12-20T08:04:58;8.60;99.90
34768;DHT22;21755;43.608;1.236;2023-12-20T08:07:24;8.70;99.90
34768;DHT22;21755;43.608;1.236;2023-12-20T08:09:50;8.70;99.90
34768;DHT22;21755;43.608;1.236;2023-12-20T08:12:17;8.70;99.90
34768;DHT22;21755;43.608;1.236;2023-12-20T08:14:43;8.70;99.90
34768;DHT22;21755;43.608;1.236;2023-12-20T08:17:08;8.70;99.90
34768;DHT22;21755;43.608;1.236;2023-12-20T08:19:34;8.70;99.90
34768;DHT22;21755;43.608;1.236;2023-12-20T08:22:00;8.70;99.90
34768;DHT22;21755;43.608;1.236;2023-12-20T08:24:26;8.60;99.90
34768;DHT22;21755;43.608;1.236;2023-12-20T08:26:52;8.70;99.90
34768;DHT22;21755;43.608;1.236;2023-12-20T08:29:18;8.60;99.90
34768;DHT22;21755;43.608;1.236;2023-12-20T08:31:44;8.70;99.90
34768;DHT22;21755;43.608;1.236;2023-12-20T08:34:12;8.60;99.90
34768;DHT22;21755;43.608;1.236;2023-12-20T08:36:40;8.70;99.90
34768;DHT22;21755;43.608;1.236;2023-12-20T08:39:06;8.70;99.90
34768;DHT22;21755;43.608;1.236;2023-12-20T08:41:33;8.70;99.90
34768;DHT22;21755;43.608;1.236;2023-12-20T08:43:59;8.70;99.90
34768;DHT22;21755;43.608;1.236;2023-12-20T08:46:24;8.70;99.90
34768;DHT22;21755;43.608;1.236;2023-12-20T08:48:50;8.70;99.90
34768;DHT22;21755;43.608;1.236;2023-12-20T08:51:16;8.60;99.90
34768;DHT22;21755;43.608;1.236;2023-12-20T08:53:43;8.70;99.90
34768;DHT22;21755;43.608;1.236;2023-12-20T08:56:10;8.70;99.90
34768;DHT22;21755;43.608;1.236;2023-12-20T08:58:36;8.60;99.90
34768;DHT22;21755;43.608;1.236;2023-12-20T09:01:02;8.70;99.90
34768;DHT22;21755;43.608;1.236;2023-12-20T09:03:28;8.70;99.90
34768;DHT22;21755;43.608;1.236;2023-12-20T09:05:54;8.70;99.90
34768;DHT22;21755;43.608;1.236;2023-12-20T09:08:20;8.70;99.90
34768;DHT22;21755;43.608;1.236;2023-12-20T09:10:46;8.70;99.90
34768;DHT22;21755;43.608;1.236;2023-12-20T09:13:12;8.70;99.90
34768;DHT22;21755;43.608;1.236;2023-12-20T09:15:38;8.70;99.90
34768;DHT22;21755;43.608;1.236;2023-12-20T09:18:04;8.70;99.90
34768;DHT22;21755;43.608;1.236;2023-12-20T09:20:29;8.70;99.90
34768;DHT22;21755;43.608;1.236;2023-12-20T09:22:55;8.70;99.90
34768;DHT22;21755;43.608;1.236;2023-12-20T09:25:22;8.70;99.90
34768;DHT22;21755;43.608;1.236;2023-12-20T09:27:48;8.70;99.90
34768;DHT22;21755;43.608;1.236;2023-12-20T09:30:14;8.70;99.90
34768;DHT22;21755;43.608;1.236;2023-12-20T09:32:40;8.70;99.90
34768;DHT22;21755;43.608;1.236;2023-12-20T09:35:06;8.70;99.90
34768;DHT22;21755;43.608;1.236;2023-12-20T09:37:34;8.70;99.90
34768;DHT22;21755;43.608;1.236;2023-12-20T09:40:00;8.70;99.90
34768;DHT22;21755;43.608;1.236;2023-12-20T09:42:56;8.80;99.90
34768;DHT22;21755;43.608;1.236;2023-12-20T09:45:23;8.80;99.90
34768;DHT22;21755;43.608;1.236;2023-12-20T09:47:50;8.90;99.90
34768;DHT22;21755;43.608;1.236;2023-12-20T09:50:21;9.00;99.90
34768;DHT22;21755;43.608;1.236;2023-12-20T09:52:52;9.00;99.90
34768;DHT22;21755;43.608;1.236;2023-12-20T09:55:19;9.00;99.90
34768;DHT22;21755;43.608;1.236;2023-12-20T09:57:49;9.00;99.90
34768;DHT22;21755;43.608;1.236;2023-12-20T10:00:15;9.00;99.90
34768;DHT22;21755;43.608;1.236;2023-12-20T10:02:50;9.10;99.90
34768;DHT22;21755;43.608;1.236;2023-12-20T10:05:17;9.30;99.90
34768;DHT22;21755;43.608;1.236;2023-12-20T10:07:46;9.40;99.90
34768;DHT22;21755;43.608;1.236;2023-12-20T10:10:13;9.40;99.90
34768;DHT22;21755;43.608;1.236;2023-12-20T10:12:40;9.40;99.90
34768;DHT22;21755;43.608;1.236;2023-12-20T10:15:06;9.40;99.90
34768;DHT22;21755;43.608;1.236;2023-12-20T10:17:32;9.50;99.90
34768;DHT22;21755;43.608;1.236;2023-12-20T10:19:58;9.50;99.90
34768;DHT22;21755;43.608;1.236;2023-12-20T10:22:24;9.60;99.90
34768;DHT22;21755;43.608;1.236;2023-12-20T10:24:50;9.70;99.90
34768;DHT22;21755;43.608;1.236;2023-12-20T10:27:18;9.70;99.90
34768;DHT22;21755;43.608;1.236;2023-12-20T10:29:45;9.70;99.90
34768;DHT22;21755;43.608;1.236;2023-12-20T10:32:27;9.70;99.90
34768;DHT22;21755;43.608;1.236;2023-12-20T10:34:54;9.70;99.90
34768;DHT22;21755;43.608;1.236;2023-12-20T10:37:21;9.70;99.90
34768;DHT22;21755;43.608;1.236;2023-12-20T10:39:51;9.60;99.90
34768;DHT22;21755;43.608;1.236;2023-12-20T10:42:20;9.50;99.90
34768;DHT22;21755;43.608;1.236;2023-12-20T10:44:50;9.40;99.90
34768;DHT22;21755;43.608;1.236;2023-12-20T10:47:17;9.40;99.90
34768;DHT22;21755;43.608;1.236;2023-12-20T10:49:43;9.40;99.90
34768;DHT22;21755;43.608;1.236;2023-12-20T10:52:11;9.40;99.90
34768;DHT22;21755;43.608;1.236;2023-12-20T10:54:42;9.40;99.90
34768;DHT22;21755;43.608;1.236;2023-12-20T10:57:08;9.30;99.90
34768;DHT22;21755;43.608;1.236;2023-12-20T10:59:37;9.40;99.90
34768;DHT22;21755;43.608;1.236;2023-12-20T11:02:04;9.50;99.90
34768;DHT22;21755;43.608;1.236;2023-12-20T11:07:33;9.50;99.90
34768;DHT22;21755;43.608;1.236;2023-12-20T11:12:47;9.50;99.90
34768;DHT22;21755;43.608;1.236;2023-12-20T11:15:15;9.40;99.90
34768;DHT22;21755;43.608;1.236;2023-12-20T11:17:45;9.50;99.90
34768;DHT22;21755;43.608;1.236;2023-12-20T11:20:14;9.70;99.90
34768;DHT22;21755;43.608;1.236;2023-12-20T11:22:54;10.00;99.90
34768;DHT22;21755;43.608;1.236;2023-12-20T11:25:20;10.20;99.90
34768;DHT22;21755;43.608;1.236;2023-12-20T11:28:07;10.30;99.90
34768;DHT22;21755;43.608;1.236;2023-12-20T11:30:48;10.30;99.90
34768;DHT22;21755;43.608;1.236;2023-12-20T11:33:16;10.20;99.90
34768;DHT22;21755;43.608;1.236;2023-12-20T11:35:43;10.30;99.90
34768;DHT22;21755;43.608;1.236;2023-12-20T11:38:11;10.50;99.90
34768;DHT22;21755;43.608;1.236;2023-12-20T11:40:37;10.70;99.90
34768;DHT22;21755;43.608;1.236;2023-12-20T11:43:04;10.50;99.90
34768;DHT22;21755;43.608;1.236;2023-12-20T11:45:31;10.20;99.90
34768;DHT22;21755;43.608;1.236;2023-12-20T11:47:58;9.90;99.90
34768;DHT22;21755;43.608;1.236;2023-12-20T11:50:24;9.90;99.90
34768;DHT22;21755;43.608;1.236;2023-12-20T11:52:52;10.00;99.90
34768;DHT22;21755;43.608;1.236;2023-12-20T11:55:19;10.00;99.90
34768;DHT22;21755;43.608;1.236;2023-12-20T11:57:44;10.00;99.90
34768;DHT22;21755;43.608;1.236;2023-12-20T12:00:11;9.90;99.90
34768;DHT22;21755;43.608;1.236;2023-12-20T12:02:37;9.80;99.90
34768;DHT22;21755;43.608;1.236;2023-12-20T12:05:03;9.80;99.90
34768;DHT22;21755;43.608;1.236;2023-12-20T12:07:33;9.70;99.90
34768;DHT22;21755;43.608;1.236;2023-12-20T12:09:59;9.60;99.90
34768;DHT22;21755;43.608;1.236;2023-12-20T12:12:25;9.40;99.90
34768;DHT22;21755;43.608;1.236;2023-12-20T12:14:53;9.30;99.90
34768;DHT22;21755;43.608;1.236;2023-12-20T12:17:19;9.30;99.90
34768;DHT22;21755;43.608;1.236;2023-12-20T12:19:45;9.40;99.90
34768;DHT22;21755;43.608;1.236;2023-12-20T12:22:13;9.50;99.90
34768;DHT22;21755;43.608;1.236;2023-12-20T12:24:43;9.70;99.90
34768;DHT22;21755;43.608;1.236;2023-12-20T12:27:10;9.70;99.90
34768;DHT22;21755;43.608;1.236;2023-12-20T12:29:37;9.80;99.90
34768;DHT22;21755;43.608;1.236;2023-12-20T12:32:09;10.00;99.90
34768;DHT22;21755;43.608;1.236;2023-12-20T12:34:36;10.20;99.90
34768;DHT22;21755;43.608;1.236;2023-12-20T12:37:06;10.50;99.90
34768;DHT22;21755;43.608;1.236;2023-12-20T12:39:32;10.60;99.90
34768;DHT22;21755;43.608;1.236;2023-12-20T12:41:58;10.70;99.90
34768;DHT22;21755;43.608;1.236;2023-12-20T12:44:24;10.70;99.90
34768;DHT22;21755;43.608;1.236;2023-12-20T12:46:50;10.60;99.90
34768;DHT22;21755;43.608;1.236;2023-12-20T12:49:17;10.30;99.90
34768;DHT22;21755;43.608;1.236;2023-12-20T12:51:43;10.30;99.90
34768;DHT22;21755;43.608;1.236;2023-12-20T12:54:09;10.20;99.90
34768;DHT22;21755;43.608;1.236;2023-12-20T12:56:36;10.00;99.90
34768;DHT22;21755;43.608;1.236;2023-12-20T12:59:02;9.80;99.90
34768;DHT22;21755;43.608;1.236;2023-12-20T13:01:28;9.70;99.90
34768;DHT22;21755;43.608;1.236;2023-12-20T13:03:54;9.70;99.90
34768;DHT22;21755;43.608;1.236;2023-12-20T13:06:20;9.80;99.90
34768;DHT22;21755;43.608;1.236;2023-12-20T13:08:46;10.00;99.90
34768;DHT22;21755;43.608;1.236;2023-12-20T13:11:12;10.20;99.90
34768;DHT22;21755;43.608;1.236;2023-12-20T13:13:37;10.40;99.90
34768;DHT22;21755;43.608;1.236;2023-12-20T13:16:04;10.50;99.90
34768;DHT22;21755;43.608;1.236;2023-12-20T13:18:30;10.30;99.90
34768;DHT22;21755;43.608;1.236;2023-12-20T13:20:56;10.10;99.90
34768;DHT22;21755;43.608;1.236;2023-12-20T13:23:22;9.90;99.90
34768;DHT22;21755;43.608;1.236;2023-12-20T13:25:48;9.70;99.90
34768;DHT22;21755;43.608;1.236;2023-12-20T13:28:14;9.60;99.90
34768;DHT22;21755;43.608;1.236;2023-12-20T13:30:40;9.80;99.90
34768;DHT22;21755;43.608;1.236;2023-12-20T13:33:06;9.90;99.90
34768;DHT22;21755;43.608;1.236;2023-12-20T13:35:33;10.00;99.90
34768;DHT22;21755;43.608;1.236;2023-12-20T13:38:00;10.00;99.90
34768;DHT22;21755;43.608;1.236;2023-12-20T13:40:26;9.90;99.90
34768;DHT22;21755;43.608;1.236;2023-12-20T13:42:52;9.90;99.90
34768;DHT22;21755;43.608;1.236;2023-12-20T13:45:20;9.80;99.90
34768;DHT22;21755;43.608;1.236;2023-12-20T13:47:46;9.80;99.90
34768;DHT22;21755;43.608;1.236;2023-12-20T13:50:12;9.80;99.90
34768;DHT22;21755;43.608;1.236;2023-12-20T13:52:38;9.90;99.90
34768;DHT22;21755;43.608;1.236;2023-12-20T13:55:04;9.80;99.90
34768;DHT22;21755;43.608;1.236;2023-12-20T13:57:33;9.70;99.90
34768;DHT22;21755;43.608;1.236;2023-12-20T13:59:59;9.60;99.90
34768;DHT22;21755;43.608;1.236;2023-12-20T14:02:25;9.30;99.90
34768;DHT22;21755;43.608;1.236;2023-12-20T14:04:52;9.20;99.90
34768;DHT22;21755;43.608;1.236;2023-12-20T14:07:18;9.10;99.90
34768;DHT22;21755;43.608;1.236;2023-12-20T14:09:44;9.10;99.90
34768;DHT22;21755;43.608;1.236;2023-12-20T14:12:11;9.10;99.90
34768;DHT22;21755;43.608;1.236;2023-12-20T14:14:37;9.20;99.90
34768;DHT22;21755;43.608;1.236;2023-12-20T14:17:03;9.40;99.90
34768;DHT22;21755;43.608;1.236;2023-12-20T14:19:32;9.30;99.90
34768;DHT22;21755;43.608;1.236;2023-12-20T14:21:58;9.30;99.90
34768;DHT22;21755;43.608;1.236;2023-12-20T14:24:29;9.20;99.90
34768;DHT22;21755;43.608;1.236;2023-12-20T14:26:56;9.10;99.90
34768;DHT22;21755;43.608;1.236;2023-12-20T14:29:24;9.10;99.90
34768;DHT22;21755;43.608;1.236;2023-12-20T14:31:50;9.10;99.90
34768;DHT22;21755;43.608;1.236;2023-12-20T14:34:16;9.10;99.90
34768;DHT22;21755;43.608;1.236;2023-12-20T14:36:42;9.10;99.90
34768;DHT22;21755;43.608;1.236;2023-12-20T14:39:08;9.10;99.90
34768;DHT22;21755;43.608;1.236;2023-12-20T14:41:34;9.20;99.90
34768;DHT22;21755;43.608;1.236;2023-12-20T14:44:00;9.20;99.90
34768;DHT22;21755;43.608;1.236;2023-12-20T14:46:26;9.10;99.90
34768;DHT22;21755;43.608;1.236;2023-12-20T14:48:52;9.00;99.90
34768;DHT22;21755;43.608;1.236;2023-12-20T14:51:18;9.00;99.90
34768;DHT22;21755;43.608;1.236;2023-12-20T14:53:44;9.00;99.90
34768;DHT22;21755;43.608;1.236;2023-12-20T14:56:12;9.00;99.90
34768;DHT22;21755;43.608;1.236;2023-12-20T14:58:38;9.10;99.90
34768;DHT22;21755;43.608;1.236;2023-12-20T15:01:04;9.00;99.90
34768;DHT22;21755;43.608;1.236;2023-12-20T15:03:33;9.00;99.90
34768;DHT22;21755;43.608;1.236;2023-12-20T15:05:58;9.00;99.90
34768;DHT22;21755;43.608;1.236;2023-12-20T15:08:25;8.90;99.90
34768;DHT22;21755;43.608;1.236;2023-12-20T15:10:51;8.90;99.90
34768;DHT22;21755;43.608;1.236;2023-12-20T15:13:17;8.90;99.90
34768;DHT22;21755;43.608;1.236;2023-12-20T15:15:43;8.90;99.90
34768;DHT22;21755;43.608;1.236;2023-12-20T15:18:09;8.90;99.90
34768;DHT22;21755;43.608;1.236;2023-12-20T15:20:35;8.80;99.90
34768;DHT22;21755;43.608;1.236;2023-12-20T15:23:02;8.80;99.90
34768;DHT22;21755;43.608;1.236;2023-12-20T15:25:33;8.80;99.90
34768;DHT22;21755;43.608;1.236;2023-12-20T15:27:59;8.80;99.90
34768;DHT22;21755;43.608;1.236;2023-12-20T15:30:24;8.80;99.90
34768;DHT22;21755;43.608;1.236;2023-12-20T15:32:51;8.70;99.90
34768;DHT22;21755;43.608;1.236;2023-12-20T15:35:17;8.70;99.90
34768;DHT22;21755;43.608;1.236;2023-12-20T15:37:43;8.70;99.90
34768;DHT22;21755;43.608;1.236;2023-12-20T15:40:09;8.60;99.90
34768;DHT22;21755;43.608;1.236;2023-12-20T15:42:39;8.60;99.90
34768;DHT22;21755;43.608;1.236;2023-12-20T15:45:06;8.60;99.90
34768;DHT22;21755;43.608;1.236;2023-12-20T15:47:34;8.60;99.90
34768;DHT22;21755;43.608;1.236;2023-12-20T15:50:02;8.50;99.90